Time;durP1;ratioP1;P1;durP2;ratioP2;P2;SDS_P1;SDS_P2;PMS_P1;PMS_P2;Temp;Humidity;BMP_temperature;BMP_pressure;BME280_temperature;BME280_humidity;BME280_pressure;Samples;Min_cycle;Max_cycle;Signal;HPM_P1;HPM_P2
2024/01/16 00:00:12;;;;;;;20.25;9.45;;;;;;;1.63;95.01;96938.34;5302115;27;20359;-78
2024/01/16 00:02:40;;;;;;;22.87;8.70;;;;;;;1.65;94.06;96938.31;5301667;27;20070;-79
2024/01/16 00:05:09;;;;;;;26.20;10.20;;;;;;;1.69;93.64;96944.97;5301941;27;20191;-79
2024/01/16 00:07:39;;;;;;;22.95;9.10;;;;;;;1.52;94.43;96950.50;5302029;27;20076;-79
2024/01/16 00:10:08;;;;;;;22.25;9.43;;;;;;;1.16;96.40;96947.94;5301642;27;20463;-79
2024/01/16 00:12:37;;;;;;;22.37;9.32;;;;;;;1.01;98.00;96950.00;5302055;27;20065;-79
2024/01/16 00:15:05;;;;;;;26.62;9.85;;;;;;;1.14;97.25;96951.38;5301929;27;20061;-79
2024/01/16 00:17:32;;;;;;;24.10;9.05;;;;;;;1.08;98.17;96949.00;5301817;27;20069;-79
2024/01/16 00:20:01;;;;;;;23.62;9.00;;;;;;;0.98;99.12;96958.53;5302083;27;20088;-79
2024/01/16 00:22:28;;;;;;;21.42;8.80;;;;;;;0.97;99.52;96961.94;5302111;27;20045;-78
2024/01/16 00:24:56;;;;;;;23.08;9.43;;;;;;;1.07;99.89;96963.41;5301370;27;20218;-79
2024/01/16 00:27:24;;;;;;;21.48;8.57;;;;;;;1.44;97.61;96970.16;5301946;27;20123;-79
2024/01/16 00:29:53;;;;;;;26.10;9.98;;;;;;;1.51;95.82;96970.88;5282372;27;20085;-79
2024/01/16 00:32:22;;;;;;;21.40;9.25;;;;;;;1.59;95.47;96969.78;5301745;27;20098;-79
2024/01/16 00:35:07;;;;;;;26.45;9.82;;;;;;;1.46;95.77;96976.03;5302121;27;20156;-78
2024/01/16 00:37:37;;;;;;;27.45;10.93;;;;;;;1.37;97.67;96984.72;5301725;27;20496;-79
2024/01/16 00:40:08;;;;;;;27.48;10.50;;;;;;;1.25;98.17;96997.72;5301661;27;20058;-79
2024/01/16 00:42:38;;;;;;;26.92;10.52;;;;;;;1.09;99.54;97006.56;5301871;27;20052;-79
2024/01/16 00:45:05;;;;;;;27.77;11.85;;;;;;;1.10;100.00;97015.84;5301549;27;20061;-79
2024/01/16 00:47:34;;;;;;;24.25;10.93;;;;;;;1.04;100.00;97011.72;5301759;27;20135;-79
2024/01/16 00:50:02;;;;;;;23.08;9.95;;;;;;;1.27;99.16;97021.37;5301209;27;20050;-79
2024/01/16 00:52:31;;;;;;;23.27;9.77;;;;;;;1.12;98.79;97016.62;5301691;27;20057;-79
2024/01/16 00:55:00;;;;;;;26.10;9.75;;;;;;;1.22;98.68;97030.81;5301805;27;20073;-79
2024/01/16 00:57:29;;;;;;;28.42;11.23;;;;;;;1.26;99.05;97034.94;5301933;27;20124;-79
2024/01/16 00:59:58;;;;;;;23.48;10.13;;;;;;;1.17;98.30;97037.72;5301419;27;20117;-79
2024/01/16 01:02:27;;;;;;;25.00;11.00;;;;;;;1.32;96.18;97041.63;5301849;27;20095;-79
2024/01/16 01:04:54;;;;;;;23.52;10.50;;;;;;;1.12;98.41;97040.34;5301498;27;20404;-79
2024/01/16 01:07:21;;;;;;;27.83;10.70;;;;;;;1.10;99.28;97038.72;5301589;27;20065;-79
2024/01/16 01:09:50;;;;;;;24.15;10.18;;;;;;;1.12;98.64;97045.41;5301393;27;20061;-79
2024/01/16 01:12:18;;;;;;;30.12;11.07;;;;;;;1.22;97.78;97048.59;5282086;27;20348;-79
2024/01/16 01:14:46;;;;;;;31.90;12.15;;;;;;;0.98;99.45;97041.50;5301502;27;20076;-79
2024/01/16 01:17:16;;;;;;;29.87;11.90;;;;;;;0.88;99.16;97053.56;5282706;27;20477;-79
2024/01/16 01:19:46;;;;;;;30.40;11.95;;;;;;;0.95;99.38;97054.25;5301428;27;20114;-79
2024/01/16 01:22:13;;;;;;;32.13;11.90;;;;;;;0.85;99.78;97059.53;5301753;27;20081;-79
2024/01/16 01:24:43;;;;;;;31.33;13.00;;;;;;;0.98;98.73;97059.28;5301357;27;20072;-79
2024/01/16 01:27:11;;;;;;;30.75;12.25;;;;;;;0.78;98.00;97059.69;5301447;27;20091;-79
2024/01/16 01:29:40;;;;;;;29.42;11.80;;;;;;;0.81;97.48;97063.00;5301380;27;20061;-79
2024/01/16 01:32:09;;;;;;;30.83;12.60;;;;;;;0.66;97.75;97052.31;5301757;27;20050;-79
2024/01/16 01:34:41;;;;;;;31.62;13.45;;;;;;;0.81;96.96;97067.25;5301335;27;20061;-79
2024/01/16 01:37:10;;;;;;;30.42;12.37;;;;;;;0.92;95.75;97070.41;5301589;27;20062;-79
2024/01/16 01:39:40;;;;;;;26.40;11.60;;;;;;;1.00;94.41;97066.00;5301436;27;20431;-79
2024/01/16 01:42:09;;;;;;;31.10;12.15;;;;;;;1.02;93.87;97068.50;5301728;27;20070;-79
2024/01/16 01:44:39;;;;;;;32.22;12.80;;;;;;;0.95;94.21;97067.78;5301514;27;20072;-79
2024/01/16 01:47:07;;;;;;;28.60;11.88;;;;;;;0.95;93.86;97074.56;5301202;27;20084;-79
2024/01/16 01:49:36;;;;;;;28.33;11.80;;;;;;;0.78;94.82;97078.28;5301291;27;20420;-79
2024/01/16 01:52:04;;;;;;;32.33;12.23;;;;;;;0.61;95.19;97082.00;5301595;27;20045;-79
2024/01/16 01:54:36;;;;;;;28.77;12.00;;;;;;;0.74;94.19;97089.34;5301087;27;20077;-79
2024/01/16 01:57:05;;;;;;;28.50;11.50;;;;;;;0.32;96.43;97090.16;5301303;27;20115;-79
2024/01/16 01:59:34;;;;;;;26.20;11.00;;;;;;;0.41;96.23;97093.34;5281770;27;20071;-79
2024/01/16 02:02:04;;;;;;;31.45;12.52;;;;;;;0.45;96.33;97091.63;5282848;27;20127;-79
2024/01/16 02:04:32;;;;;;;27.80;11.10;;;;;;;0.54;94.32;97101.62;5302436;27;20061;-79
2024/01/16 02:07:01;;;;;;;30.30;12.52;;;;;;;0.52;93.13;97098.25;5283062;27;20478;-79
2024/01/16 02:09:29;;;;;;;28.62;11.93;;;;;;;0.72;93.30;97110.56;5282622;27;20065;-79
2024/01/16 02:11:59;;;;;;;33.47;13.38;;;;;;;0.72;92.74;97113.94;5302431;27;20133;-79
2024/01/16 02:14:28;;;;;;;34.00;12.90;;;;;;;0.84;92.37;97110.34;5283041;27;20143;-79
2024/01/16 02:16:55;;;;;;;29.98;12.52;;;;;;;0.77;92.84;97112.19;5301890;27;20064;-79
2024/01/16 02:19:25;;;;;;;25.20;10.68;;;;;;;0.60;95.71;97111.63;5302434;27;20063;-79
2024/01/16 02:21:58;;;;;;;28.75;11.82;;;;;;;0.54;97.97;97117.69;5302207;27;20329;-79
2024/01/16 02:24:27;;;;;;;32.25;12.05;;;;;;;0.22;100.00;97114.88;5302589;27;20106;-79
2024/01/16 02:26:57;;;;;;;31.92;12.07;;;;;;;0.36;100.00;97129.84;5302254;27;20549;-79
2024/01/16 02:29:26;;;;;;;31.10;11.50;;;;;;;0.40;100.00;97117.06;5282793;27;20063;-79
2024/01/16 02:31:54;;;;;;;28.55;11.52;;;;;;;0.41;99.82;97123.81;5302466;27;20081;-79
2024/01/16 02:34:23;;;;;;;31.55;11.48;;;;;;;0.54;98.92;97132.91;5302397;27;20057;-79
2024/01/16 02:36:51;;;;;;;28.20;11.25;;;;;;;0.45;98.94;97128.00;5302019;27;20065;-79
2024/01/16 02:39:20;;;;;;;26.52;10.85;;;;;;;0.23;99.83;97130.06;5302358;27;20057;-79
2024/01/16 02:41:48;;;;;;;29.00;11.20;;;;;;;0.24;100.00;97134.25;5302237;27;20069;-79
2024/01/16 02:44:16;;;;;;;26.23;10.73;;;;;;;0.20;99.93;97140.22;5301921;27;20068;-79
2024/01/16 02:46:44;;;;;;;30.48;11.48;;;;;;;0.45;98.88;97144.91;5302105;27;20061;-79
2024/01/16 02:49:14;;;;;;;28.38;11.27;;;;;;;0.56;96.91;97138.78;5302138;27;20100;-79
2024/01/16 02:51:41;;;;;;;31.75;11.25;;;;;;;0.33;97.89;97140.88;5282604;27;20053;-79
2024/01/16 02:54:10;;;;;;;27.37;11.23;;;;;;;0.60;96.28;97147.19;5302374;27;20091;-79
2024/01/16 02:56:38;;;;;;;31.20;12.23;;;;;;;0.68;94.83;97152.13;5302241;27;20360;-79
2024/01/16 02:59:07;;;;;;;29.92;13.00;;;;;;;0.26;96.05;97152.81;5282472;27;20061;-79
2024/01/16 03:01:34;;;;;;;32.10;12.32;;;;;;;0.40;95.25;97147.53;5282980;27;20060;-79
2024/01/16 03:04:02;;;;;;;31.37;13.75;;;;;;;0.22;95.53;97166.44;5301905;27;20474;-79
2024/01/16 03:06:32;;;;;;;33.28;13.55;;;;;;;0.09;96.17;97177.62;5302115;27;20057;-79
2024/01/16 03:09:02;;;;;;;38.47;13.65;;;;;;;-0.36;98.73;97151.22;5302203;27;20084;-79
2024/01/16 03:11:33;;;;;;;33.85;13.50;;;;;;;-0.17;97.77;97155.19;5301487;27;20053;-79
2024/01/16 03:14:02;;;;;;;35.58;12.82;;;;;;;-0.10;97.77;97158.50;5302233;27;20112;-79
2024/01/16 03:16:32;;;;;;;28.95;11.45;;;;;;;0.02;96.94;97163.38;5302009;27;20081;-79
2024/01/16 03:19:00;;;;;;;26.30;10.23;;;;;;;0.02;95.76;97163.38;5301648;27;20065;-79
2024/01/16 03:21:29;;;;;;;29.12;10.60;;;;;;;0.22;95.10;97179.13;5302329;27;20045;-79
2024/01/16 03:23:56;;;;;;;29.67;10.75;;;;;;;0.19;95.47;97179.16;5302181;27;20465;-79
2024/01/16 03:26:26;;;;;;;26.02;10.85;;;;;;;0.36;94.24;97186.50;5301419;27;20103;-79
2024/01/16 03:28:55;;;;;;;27.37;11.63;;;;;;;0.39;93.67;97183.91;5302179;27;20461;-79
2024/01/16 03:31:24;;;;;;;27.40;11.43;;;;;;;0.28;93.85;97188.31;5301818;27;20052;-79
2024/01/16 03:33:53;;;;;;;29.45;11.27;;;;;;;0.31;93.69;97200.12;5282509;27;20139;-79
2024/01/16 03:36:21;;;;;;;28.60;10.98;;;;;;;0.17;93.40;97196.09;5302043;27;20065;-79
2024/01/16 03:38:50;;;;;;;25.60;10.70;;;;;;;0.21;92.18;97199.41;5302029;27;20450;-79
2024/01/16 03:41:18;;;;;;;30.77;11.98;;;;;;;-0.01;92.12;97203.97;5282500;27;20059;-79
2024/01/16 03:43:48;;;;;;;29.33;12.02;;;;;;;0.20;92.02;97207.88;5302017;27;20424;-79
2024/01/16 03:46:15;;;;;;;27.20;11.20;;;;;;;-0.13;91.94;97204.16;5282248;27;20107;-79
2024/01/16 03:48:43;;;;;;;27.95;11.32;;;;;;;0.06;91.43;97208.09;5302145;27;20069;-79
2024/01/16 03:51:11;;;;;;;24.55;10.13;;;;;;;0.19;91.81;97214.66;5302060;27;20045;-79
2024/01/16 03:53:41;;;;;;;26.50;10.30;;;;;;;0.26;90.60;97212.88;5282620;27;20132;-79
2024/01/16 03:56:10;;;;;;;28.90;10.10;;;;;;;0.16;91.17;97221.50;5301932;27;20064;-79
2024/01/16 03:58:41;;;;;;;27.92;10.40;;;;;;;-0.04;91.73;97219.25;5302088;27;20095;-79
2024/01/16 04:01:10;;;;;;;24.83;9.57;;;;;;;0.00;91.53;97225.97;5301718;27;20049;-79
2024/01/16 04:03:39;;;;;;;23.52;9.68;;;;;;;0.23;90.20;97216.31;5302170;27;20427;-79
2024/01/16 04:06:16;;;;;;;26.52;10.27;;;;;;;0.20;89.15;97223.94;5302065;27;20061;-79
2024/01/16 04:08:45;;;;;;;24.70;10.15;;;;;;;0.35;87.34;97222.06;5301658;27;20290;-79
2024/01/16 04:11:14;;;;;;;24.90;10.13;;;;;;;0.26;85.83;97233.19;5282777;27;20049;-79
2024/01/16 04:13:43;;;;;;;25.48;9.75;;;;;;;-0.09;89.07;97242.13;5302111;27;20078;-79
2024/01/16 04:16:12;;;;;;;25.33;9.80;;;;;;;0.46;86.54;97243.88;5301789;27;20127;-79
2024/01/16 04:18:42;;;;;;;23.23;9.43;;;;;;;0.11;86.21;97241.87;5264875;27;20065;-79
2024/01/16 04:21:09;;;;;;;24.33;10.13;;;;;;;0.41;85.14;97243.09;5277202;27;142262;-79
2024/01/16 04:23:37;;;;;;;25.67;10.35;;;;;;;0.60;83.40;97253.78;5301385;27;20057;-79
2024/01/16 04:26:07;;;;;;;23.90;9.20;;;;;;;0.41;84.25;97258.31;5301692;27;20344;-79
2024/01/16 04:28:36;;;;;;;27.30;9.85;;;;;;;0.31;86.64;97250.88;5301963;27;20081;-79
2024/01/16 04:31:05;;;;;;;22.67;9.70;;;;;;;0.19;88.71;97262.88;5301764;27;20455;-79
2024/01/16 04:33:35;;;;;;;25.60;10.38;;;;;;;0.14;89.38;97258.72;5301869;27;20125;-79
2024/01/16 04:36:06;;;;;;;26.00;9.82;;;;;;;0.17;89.78;97264.59;5301560;27;20064;-79
2024/01/16 04:38:35;;;;;;;26.12;10.45;;;;;;;-0.07;92.02;97267.47;5302069;27;20064;-79
2024/01/16 04:41:04;;;;;;;23.30;9.65;;;;;;;0.05;92.38;97262.22;5301842;27;20057;-79
2024/01/16 04:43:32;;;;;;;27.52;9.60;;;;;;;-0.29;93.08;97274.50;5301606;27;20400;-79
2024/01/16 04:46:01;;;;;;;27.37;10.88;;;;;;;-0.08;93.42;97281.00;5282846;27;20200;-79
2024/01/16 04:48:31;;;;;;;27.15;10.93;;;;;;;-0.22;94.17;97286.22;5282955;27;20075;-79
2024/01/16 04:50:59;;;;;;;27.13;10.75;;;;;;;-0.19;93.75;97278.63;5301380;27;20060;-79
2024/01/16 04:53:27;;;;;;;30.60;11.73;;;;;;;-0.20;94.33;97291.31;5301922;27;20077;-79
2024/01/16 04:55:55;;;;;;;30.25;12.32;;;;;;;-0.44;96.46;97298.31;5301691;27;20061;-79
2024/01/16 04:58:23;;;;;;;32.25;11.55;;;;;;;-0.08;95.29;97297.06;5282068;27;20077;-79
2024/01/16 05:00:52;;;;;;;26.50;11.40;;;;;;;0.04;95.73;97316.34;5301629;27;20139;-79
2024/01/16 05:03:20;;;;;;;31.02;12.10;;;;;;;-0.41;99.76;97313.50;5301674;27;20061;-79
2024/01/16 05:05:48;;;;;;;37.03;12.55;;;;;;;-0.04;98.96;97308.00;5301694;27;20136;-79
2024/01/16 05:08:16;;;;;;;28.38;11.48;;;;;;;-0.09;99.49;97318.22;5301969;27;20045;-79
2024/01/16 05:10:45;;;;;;;32.05;11.57;;;;;;;0.10;99.27;97321.34;5301250;27;20060;-79
2024/01/16 05:13:14;;;;;;;33.28;12.27;;;;;;;-0.02;100.00;97329.09;5282751;27;20112;-79
2024/01/16 05:15:44;;;;;;;30.02;12.07;;;;;;;-0.20;100.00;97330.19;5301526;27;20119;-79
2024/01/16 05:18:12;;;;;;;32.22;12.70;;;;;;;0.16;99.76;97320.44;5301442;27;20056;-79
2024/01/16 05:20:40;;;;;;;40.92;12.98;;;;;;;0.08;100.00;97325.59;5301685;27;20056;-79
2024/01/16 05:23:07;;;;;;;40.30;12.90;;;;;;;-0.09;100.00;97335.97;5301676;27;20493;-79
2024/01/16 05:25:37;;;;;;;42.97;14.00;;;;;;;-0.02;100.00;97329.09;5301085;27;20061;-79
2024/01/16 05:28:05;;;;;;;35.10;13.27;;;;;;;-0.10;100.00;97339.34;5301600;27;20727;-79
2024/01/16 05:30:34;;;;;;;33.17;11.90;;;;;;;-0.07;100.00;97343.53;5282285;27;20440;-79
2024/01/16 05:33:03;;;;;;;35.05;13.45;;;;;;;0.13;100.00;97344.16;5301381;27;20065;-79
2024/01/16 05:35:31;;;;;;;51.30;12.32;;;;;;;0.08;100.00;97343.34;5301907;27;20072;-79
2024/01/16 05:37:59;;;;;;;50.78;12.48;;;;;;;-0.03;100.00;97358.69;5302694;27;20100;-79
2024/01/16 05:40:29;;;;;;;65.32;13.35;;;;;;;-0.03;100.00;97361.22;5282734;27;20053;-79
2024/01/16 05:42:57;;;;;;;48.90;14.30;;;;;;;-0.15;100.00;97360.53;5302662;27;20057;-79
2024/01/16 05:45:25;;;;;;;52.72;13.45;;;;;;;-0.03;100.00;97370.53;5302003;27;20148;-79
2024/01/16 05:47:52;;;;;;;48.95;13.57;;;;;;;-0.06;100.00;97368.88;5302461;27;20110;-79
2024/01/16 05:50:22;;;;;;;54.92;14.55;;;;;;;-0.20;100.00;97367.38;5283251;27;20057;-79
2024/01/16 05:52:50;;;;;;;55.80;14.25;;;;;;;-0.33;100.00;97380.16;5302279;27;20104;-79
2024/01/16 05:55:18;;;;;;;60.10;14.35;;;;;;;-0.32;100.00;97378.44;5302170;27;20462;-79
2024/01/16 05:57:46;;;;;;;48.17;13.02;;;;;;;-0.25;100.00;97387.69;5302628;27;20057;-79
2024/01/16 06:00:14;;;;;;;54.85;14.38;;;;;;;-0.18;100.00;97380.88;5302141;27;20099;-79
2024/01/16 06:02:44;;;;;;;59.78;14.90;;;;;;;0.04;100.00;97394.97;5302336;27;20135;-78
2024/01/16 06:05:12;;;;;;;59.22;15.35;;;;;;;-0.07;100.00;97384.97;5302287;27;20075;-79
2024/01/16 06:07:40;;;;;;;55.42;15.20;;;;;;;0.40;100.00;97410.59;5302175;27;20060;-79
2024/01/16 06:10:09;;;;;;;45.60;14.02;;;;;;;0.08;100.00;97406.75;5302051;27;20400;-79
2024/01/16 06:12:37;;;;;;;45.78;13.10;;;;;;;0.38;100.00;97414.88;5302579;27;20053;-80
2024/01/16 06:15:04;;;;;;;52.95;14.45;;;;;;;0.24;100.00;97423.50;5303904;27;20069;-81
2024/01/16 06:17:34;;;;;;;44.35;14.45;;;;;;;0.09;100.00;97410.13;5302550;27;20470;-82
2024/01/16 06:20:03;;;;;;;45.33;14.70;;;;;;;0.24;100.00;97412.50;5302918;27;20101;-82
2024/01/16 06:22:52;;;;;;;41.92;14.05;;;;;;;0.18;100.00;97408.34;5324358;27;20072;-83
2024/01/16 06:25:32;;;;;;;43.50;15.93;;;;;;;0.21;100.00;97420.13;5324464;27;20115;-82
2024/01/16 06:28:03;;;;;;;39.65;12.50;;;;;;;0.28;100.00;97421.75;5324254;27;20061;-82
2024/01/16 06:30:32;;;;;;;44.92;14.30;;;;;;;0.05;100.00;97406.81;5305114;27;20048;-82
2024/01/16 06:33:00;;;;;;;46.97;14.40;;;;;;;0.00;100.00;97431.41;5324548;27;20123;-82
2024/01/16 06:35:28;;;;;;;44.20;14.63;;;;;;;-0.02;100.00;97421.25;5324408;26;20061;-82
2024/01/16 06:37:58;;;;;;;41.72;14.48;;;;;;;0.25;100.00;97447.16;5324428;27;20049;-82
2024/01/16 06:40:25;;;;;;;46.83;15.35;;;;;;;0.20;100.00;97444.66;5303824;27;20046;-83
2024/01/16 06:42:53;;;;;;;39.38;13.88;;;;;;;0.13;100.00;97454.91;5324246;27;20056;-82
2024/01/16 06:45:21;;;;;;;43.22;14.90;;;;;;;0.36;100.00;97467.34;5324384;27;20088;-82
2024/01/16 06:47:51;;;;;;;41.35;14.02;;;;;;;-0.23;100.00;97425.69;5325728;27;20052;-82
2024/01/16 06:50:19;;;;;;;39.50;14.32;;;;;;;0.24;100.00;97468.31;5304582;27;20048;-81
2024/01/16 06:52:48;;;;;;;35.67;13.05;;;;;;;0.17;100.00;97475.16;5324383;27;20124;-81
2024/01/16 06:55:16;;;;;;;36.05;13.35;;;;;;;0.31;100.00;97475.00;5324143;27;20133;-82
2024/01/16 06:57:43;;;;;;;37.65;13.88;;;;;;;0.28;100.00;97485.19;5324836;27;20061;-81
2024/01/16 07:00:14;;;;;;;40.15;13.90;;;;;;;0.52;100.00;97482.34;5305832;27;20045;-81
2024/01/16 07:02:43;;;;;;;38.05;14.20;;;;;;;0.19;100.00;97490.34;5324700;27;20057;-82
2024/01/16 07:05:12;;;;;;;37.17;13.35;;;;;;;0.03;100.00;97477.00;5305469;27;20076;-81
2024/01/16 07:07:39;;;;;;;35.35;14.20;;;;;;;0.27;100.00;97484.34;5324959;27;20096;-82
2024/01/16 07:10:13;;;;;;;39.45;13.77;;;;;;;0.11;100.00;97482.84;5324094;27;20049;-83
2024/01/16 07:12:40;;;;;;;36.67;14.50;;;;;;;0.16;100.00;97485.31;5324411;27;20074;-82
2024/01/16 07:15:09;;;;;;;37.45;13.07;;;;;;;0.26;100.00;97481.84;5305032;27;20111;-82
2024/01/16 07:17:38;;;;;;;37.97;14.05;;;;;;;0.08;100.00;97484.56;5323836;27;20053;-82
2024/01/16 07:20:08;;;;;;;38.50;13.27;;;;;;;-0.20;100.00;97484.00;5304670;27;20493;-81
2024/01/16 07:22:39;;;;;;;40.30;13.65;;;;;;;-0.25;100.00;97503.47;5324252;27;20079;-82
2024/01/16 07:25:07;;;;;;;36.22;13.00;;;;;;;0.18;100.00;97499.66;5323869;27;20087;-82
2024/01/16 07:27:34;;;;;;;34.40;13.38;;;;;;;0.46;100.00;97509.53;5324068;27;20353;-82
2024/01/16 07:30:06;;;;;;;38.17;13.68;;;;;;;0.37;100.00;97502.00;5323928;27;20056;-82
2024/01/16 07:32:34;;;;;;;38.58;14.70;;;;;;;0.25;100.00;97503.00;5323839;27;20119;-82
2024/01/16 07:35:03;;;;;;;38.00;12.77;;;;;;;0.10;100.00;97506.50;5324289;27;20118;-82
2024/01/16 07:37:31;;;;;;;37.53;14.07;;;;;;;0.00;100.00;97504.94;5324266;27;20056;-83
2024/01/16 07:39:59;;;;;;;32.30;11.18;;;;;;;0.45;100.00;97515.47;5324412;27;20107;-83
2024/01/16 07:42:33;;;;;;;34.50;12.45;;;;;;;0.53;100.00;97509.44;5324218;27;20148;-83
2024/01/16 07:45:04;;;;;;;31.55;12.15;;;;;;;0.41;100.00;97509.56;5323980;27;20379;-80
2024/01/16 07:47:31;;;;;;;36.40;13.32;;;;;;;0.36;100.00;97516.41;5324233;27;20098;-81
2024/01/16 07:50:00;;;;;;;34.65;12.77;;;;;;;0.82;100.00;97529.38;5324156;27;20055;-80
2024/01/16 07:52:30;;;;;;;29.77;11.85;;;;;;;0.35;100.00;97536.72;5323676;27;20049;-80
2024/01/16 07:54:58;;;;;;;33.13;11.45;;;;;;;0.28;100.00;97544.38;5324086;27;20060;-80
2024/01/16 07:57:28;;;;;;;32.70;12.77;;;;;;;0.09;100.00;97544.56;5324096;27;20415;-80
2024/01/16 07:59:58;;;;;;;35.55;12.25;;;;;;;0.11;100.00;97546.28;5323648;27;20106;-80
2024/01/16 08:02:32;;;;;;;34.80;12.52;;;;;;;0.29;100.00;97561.28;5324155;27;20056;-80
2024/01/16 08:04:59;;;;;;;32.95;12.75;;;;;;;0.38;100.00;97564.59;5324380;27;20087;-79
2024/01/16 08:07:29;;;;;;;34.25;12.43;;;;;;;0.27;100.00;97573.16;5323773;27;20056;-80
2024/01/16 08:09:57;;;;;;;32.53;12.85;;;;;;;0.55;100.00;97576.28;5323844;27;20049;-80
2024/01/16 08:12:25;;;;;;;32.83;12.82;;;;;;;0.16;100.00;97574.97;5323947;27;20099;-80
2024/01/16 08:14:53;;;;;;;30.02;11.05;;;;;;;0.33;100.00;97576.50;5324036;27;20107;-80
2024/01/16 08:17:21;;;;;;;34.67;11.80;;;;;;;0.56;100.00;97588.09;5323234;27;20049;-80
2024/01/16 08:19:51;;;;;;;38.92;12.88;;;;;;;0.25;100.00;97572.34;5323025;27;20064;-80
2024/01/16 08:22:20;;;;;;;41.45;12.27;;;;;;;0.09;100.00;97587.69;5323984;27;20057;-80
2024/01/16 08:24:48;;;;;;;32.67;11.73;;;;;;;0.10;100.00;97584.31;5324126;27;20418;-80
2024/01/16 08:31:10;;;;;;;31.65;11.68;;;;;;;0.40;100.00;97580.66;5323606;27;20041;-80
2024/01/16 08:33:39;;;;;;;;;;;;;;;0.78;100.00;97588.72;5305282;27;20075;-80
2024/01/16 08:36:15;;;;;;;31.30;11.88;;;;;;;0.60;100.00;97577.91;5324014;27;20400;-79
2024/01/16 08:39:17;;;;;;;32.45;11.77;;;;;;;0.46;100.00;97580.59;5323419;27;20048;-79
2024/01/16 08:41:46;;;;;;;31.80;11.73;;;;;;;0.40;100.00;97578.09;5304178;27;20106;-79
2024/01/16 08:44:14;;;;;;;30.15;11.27;;;;;;;0.30;100.00;97587.50;5323885;27;20064;-79
2024/01/16 08:46:42;;;;;;;31.95;11.60;;;;;;;-0.07;100.00;97577.69;5323845;27;20067;-80
2024/01/16 08:49:13;;;;;;;29.40;11.63;;;;;;;0.42;100.00;97581.47;5323343;27;20090;-80
2024/01/16 08:51:46;;;;;;;30.77;11.15;;;;;;;0.36;100.00;97590.00;5323979;27;20045;-80
2024/01/16 08:54:14;;;;;;;30.48;11.57;;;;;;;0.94;100.00;97596.12;5323799;27;20057;-81
2024/01/16 08:56:43;;;;;;;31.23;11.85;;;;;;;1.32;100.00;97596.50;5323395;26;20064;-82
2024/01/16 08:59:12;;;;;;;30.30;12.10;;;;;;;1.98;96.21;97596.38;5323663;27;20068;-81
2024/01/16 09:01:41;;;;;;;29.85;11.93;;;;;;;1.59;93.94;97599.53;5323946;27;20128;-81
2024/01/16 09:04:11;;;;;;;31.52;12.23;;;;;;;1.57;93.53;97601.25;5323865;27;20459;-81
2024/01/16 09:06:38;;;;;;;30.58;11.80;;;;;;;1.30;94.91;97608.41;5323802;27;20059;-81
2024/01/16 09:09:09;;;;;;;31.08;12.43;;;;;;;1.54;96.92;97603.84;5323448;27;20075;-81
2024/01/16 09:11:36;;;;;;;30.37;11.40;;;;;;;1.96;93.72;97599.81;5323547;27;20107;-81
2024/01/16 09:14:04;;;;;;;29.70;11.63;;;;;;;2.51;91.41;97604.84;5323864;27;20107;-81
2024/01/16 09:16:32;;;;;;;28.20;10.55;;;;;;;2.65;91.05;97612.22;5323531;27;20096;-81
2024/01/16 09:19:00;;;;;;;27.52;11.30;;;;;;;3.12;88.19;97613.03;5323649;27;20056;-81
2024/01/16 09:21:30;;;;;;;27.87;11.45;;;;;;;2.78;86.60;97602.66;5323628;27;20059;-81
2024/01/16 09:23:57;;;;;;;31.70;13.02;;;;;;;2.66;87.72;97615.59;5323409;27;20079;-81
2024/01/16 09:26:25;;;;;;;34.00;12.93;;;;;;;2.90;88.25;97615.16;5304351;27;20483;-81
2024/01/16 09:28:53;;;;;;;30.42;12.85;;;;;;;3.44;86.38;97613.22;5323759;27;20084;-81
2024/01/16 09:31:23;;;;;;;28.15;12.20;;;;;;;3.45;83.52;97608.94;5323219;27;20104;-81
2024/01/16 09:33:51;;;;;;;32.40;12.95;;;;;;;3.53;83.31;97611.34;5323616;27;20115;-81
2024/01/16 09:36:19;;;;;;;27.80;11.55;;;;;;;3.58;83.67;97609.50;5323574;26;20087;-81
2024/01/16 09:38:47;;;;;;;27.45;11.77;;;;;;;3.83;79.86;97600.47;5323353;27;20398;-81
2024/01/16 09:41:15;;;;;;;26.37;11.55;;;;;;;3.93;79.84;97599.34;5323453;27;20056;-81
2024/01/16 09:43:44;;;;;;;27.15;11.75;;;;;;;4.21;77.89;97608.91;5323659;27;20305;-80
2024/01/16 09:46:15;;;;;;;25.25;10.88;;;;;;;4.20;78.80;97607.22;5303956;27;20061;-81
2024/01/16 09:48:44;;;;;;;25.40;10.88;;;;;;;4.39;76.79;97603.34;5323746;27;20471;-81
2024/01/16 09:51:15;;;;;;;24.23;11.05;;;;;;;4.44;74.49;97586.19;5303611;27;20093;-81
2024/01/16 09:53:44;;;;;;;26.42;10.25;;;;;;;4.37;74.57;97586.41;5305010;27;20060;-81
2024/01/16 09:56:16;;;;;;;24.05;10.32;;;;;;;4.64;73.00;97589.06;5304778;27;20108;-78
2024/01/16 09:58:47;;;;;;;25.77;10.68;;;;;;;5.01;73.04;97595.75;5323307;27;20127;-79
2024/01/16 10:01:16;;;;;;;24.92;11.35;;;;;;;5.35;70.60;97602.47;5304221;27;20053;-79
2024/01/16 10:03:45;;;;;;;28.40;11.05;;;;;;;5.38;70.45;97598.09;5323644;27;20132;-78
2024/01/16 10:06:13;;;;;;;24.33;10.18;;;;;;;5.54;69.13;97595.09;5323063;26;20071;-79
2024/01/16 10:08:41;;;;;;;25.33;11.65;;;;;;;5.61;68.19;97594.84;5304191;27;20416;-79
2024/01/16 10:11:10;;;;;;;23.10;10.38;;;;;;;5.62;67.75;97591.38;5323466;27;20044;-79
2024/01/16 10:13:39;;;;;;;22.13;10.40;;;;;;;6.04;64.85;97602.06;5323138;27;20065;-79
2024/01/16 10:16:11;;;;;;;25.23;11.48;;;;;;;5.95;65.10;97591.28;5304801;27;20139;-76
2024/01/16 10:18:39;;;;;;;24.27;10.57;;;;;;;6.31;65.04;97590.09;5323177;27;20438;-78
2024/01/16 10:21:21;;;;;;;24.02;10.40;;;;;;;6.58;64.74;97592.63;5322723;27;20053;-80
2024/01/16 10:23:49;;;;;;;23.52;10.70;;;;;;;6.94;62.97;97593.09;5324577;27;20072;-79
2024/01/16 10:26:18;;;;;;;23.83;10.70;;;;;;;6.78;61.98;97591.94;5324269;27;20103;-79
2024/01/16 10:28:47;;;;;;;24.90;10.45;;;;;;;7.07;61.34;97584.06;5324425;27;20469;-79
2024/01/16 10:31:16;;;;;;;23.52;9.88;;;;;;;7.08;60.61;97593.41;5324160;27;20487;-80
2024/01/16 10:33:45;;;;;;;20.80;9.93;;;;;;;6.65;61.25;97597.50;5324153;27;20110;-80
2024/01/16 10:36:20;;;;;;;24.50;9.43;;;;;;;6.88;60.06;97591.56;5324427;27;20060;-79
2024/01/16 10:38:47;;;;;;;23.35;9.85;;;;;;;6.41;59.92;97593.19;5324609;27;20400;-79
2024/01/16 10:41:17;;;;;;;25.92;10.30;;;;;;;7.28;57.82;97597.00;5323849;27;20396;-80
2024/01/16 10:43:46;;;;;;;18.12;8.52;;;;;;;6.65;59.33;97589.78;5324574;27;20486;-79
2024/01/16 10:46:14;;;;;;;22.08;9.23;;;;;;;7.13;56.36;97590.72;5324330;27;20060;-80
2024/01/16 10:48:45;;;;;;;18.00;7.37;;;;;;;7.32;55.44;97586.56;5323989;27;20075;-79
2024/01/16 10:51:16;;;;;;;15.55;5.85;;;;;;;7.51;51.26;97594.41;5324240;27;20045;-80
2024/01/16 10:53:48;;;;;;;15.50;6.32;;;;;;;7.75;47.82;97582.34;5324901;27;20052;-80
2024/01/16 10:56:17;;;;;;;14.40;5.93;;;;;;;7.35;49.55;97586.47;5305347;27;20115;-80
2024/01/16 10:58:55;;;;;;;15.98;6.30;;;;;;;7.57;47.75;97583.91;5324492;27;20128;-79
2024/01/16 11:01:24;;;;;;;13.68;5.65;;;;;;;7.93;46.72;97579.06;5324318;27;20116;-80
2024/01/16 11:03:56;;;;;;;15.05;6.12;;;;;;;8.02;45.14;97577.87;5324455;27;20400;-80
2024/01/16 11:06:26;;;;;;;15.95;6.07;;;;;;;7.99;46.22;97576.28;5305524;27;20083;-80
2024/01/16 11:08:56;;;;;;;15.27;5.93;;;;;;;7.83;47.04;97576.03;5304976;27;20069;-80
2024/01/16 11:11:27;;;;;;;15.93;5.82;;;;;;;8.11;46.05;97580.91;5305056;27;20045;-81
2024/01/16 11:13:54;;;;;;;13.88;5.43;;;;;;;7.97;46.17;97585.75;5324132;27;20080;-80
2024/01/16 11:16:23;;;;;;;10.80;3.55;;;;;;;7.83;43.81;97580.34;5304420;27;20332;-80
2024/01/16 11:18:51;;;;;;;10.02;3.10;;;;;;;7.41;40.87;97572.53;5324400;27;20063;-81
2024/01/16 11:21:19;;;;;;;12.23;4.22;;;;;;;7.40;40.59;97573.44;5322897;27;20078;-81
2024/01/16 11:23:48;;;;;;;15.02;5.72;;;;;;;7.46;43.75;97584.31;5304514;27;20076;-80
2024/01/16 11:26:36;;;;;;;13.73;5.25;;;;;;;7.41;46.39;97588.78;5324231;27;20060;-80
2024/01/16 11:32:40;;;;;;;12.93;4.85;;;;;;;8.34;43.37;97579.16;5253118;27;20060;-80
2024/01/16 11:50:36;;;;;;;9.02;2.92;;;;;;;8.30;36.42;97562.19;5305487;27;20079;-82
2024/01/16 11:53:04;;;;;;;9.73;2.72;;;;;;;7.84;36.95;97553.75;5282528;27;20111;-81
2024/01/16 11:55:35;;;;;;;9.82;3.03;;;;;;;7.88;37.05;97551.91;5301740;27;20335;-81